Main page


Airports :

Sharjah, United Arab Emirates

Sharjah International Airport

latitude: 25-20N, longitude: 055-31E, elevation: 35 m

Current weather observation

The report was made 23 minutes ago, at 23:00 UTC
Wind 2 kt from the South/Southeast
Temperature 17°C
Humidity 82%
Pressure 1010 hPa
Visibility: 8000 m

METAR: OMSJ 222300Z 15002KT 8000 NSC 17/14 Q1010

Time: 03:23 (23:23 UTC)


The report was made 6 hours and 21 minutes ago, at 17:02 UTC
Forecast valid from 22 at 18 UTC to 24 at 00 UTC
Wind 2 kt from variable directions
Visibility: 8000 m
Probability 30%
from 23 at 00 UTC to 23 at 05 UTC
Visibility: 3000 m
from 23 at 08 UTC to 23 at 10 UTC
Wind 10 kt from the North/Northwest
from 23 at 16 UTC to 23 at 18 UTC
Wind 5 kt from the East/Northeast

TAF: OMSJ 221702Z 2218/2400 VRB02KT 8000 NSC PROB30 2300/2305 3000 BR BECMG 2308/2310 33010KT BECMG 2316/2318 07005KT

Weather observations and forecasts of more than 4000 airports (METAR and TAF reports).

The available stations are represented by yellow and red dots on the map.

Hover mouse over dot to see the name of the station.

Then click to see weather observations and forecasts.

To change the map : click on the green buttons with a black cross to zoom in, on the green button with a dash to zoom out, or on the green arrows for adjacent maps.